Turner, Minnesota
Current Conditions -  °F | °C
As of 6:27 AM on Monday 20 Oct 2014 (Local Time) from KHZX Reporting Station
Clear Clear  
Wind Chill: 43°   Ceiling: Unl
Heat Index: 43°   Visibility: 10mi
Dew Point: 39°   Wind: 3mph
Humidity: 87%   Direction: 310°NW
Pressure: 29.94"   Gusts: NA
Location:  46.7232°N, 93.3159°W
Report Text: KHZX 201127Z AUTO 31003KT 10SM CLR 06/04 A2994 RMK AO2
Loading
Personal Weather Stations






























Interactive Weather Map
Tropical Storm Tracking
New forecast layout! Learn more

10-Day Weather Forecast

Advertisements
Track Severe Weather on mobile